Time;durP1;ratioP1;P1;durP2;ratioP2;P2;SDS_P1;SDS_P2;PMS_P1;PMS_P2;Temp;Humidity;BMP_temperature;BMP_pressure;BME280_temperature;BME280_humidity;BME280_pressure;Samples;Min_cycle;Max_cycle;Signal;HPM_P1;HPM_P2
2022/08/29 00:02:27;;;;;;;;;;;;;;;26.41;65.45;100822.69;5032630;28;1960;-43
2022/08/29 00:05:13;;;;;;;;;;;;;;;26.40;65.32;100826.34;5032688;28;1352;-40
2022/08/29 00:08:00;;;;;;;;;;;;;;;26.40;65.33;100829.00;5032911;28;974;-43
2022/08/29 00:10:46;;;;;;;;;;;;;;;26.45;65.54;100834.78;5032849;28;1363;-40
2022/08/29 00:13:31;;;;;;;;;;;;;;;26.44;65.30;100834.94;5033314;28;1225;-42
2022/08/29 00:16:17;;;;;;;;;;;;;;;26.36;65.41;100846.28;5031602;28;1168;-42
2022/08/29 00:19:03;;;;;;;;;;;;;;;26.32;65.99;100844.88;5033032;28;1233;-41
2022/08/29 00:21:48;;;;;;;;;;;;;;;26.29;65.96;100845.13;5032549;28;1902;-39
2022/08/29 00:24:33;;;;;;;;;;;;;;;26.36;65.43;100840.94;5033266;28;1209;-38
2022/08/29 00:27:19;;;;;;;;;;;;;;;26.41;65.69;100854.75;5032176;28;677;-43
2022/08/29 00:30:05;;;;;;;;;;;;;;;26.37;66.05;100852.47;5032468;28;1162;-38
2022/08/29 00:32:51;;;;;;;;;;;;;;;26.37;66.12;100858.66;5032504;28;1044;-41
2022/08/29 00:35:37;;;;;;;;;;;;;;;26.35;66.70;100860.63;5031599;28;1432;-42
2022/08/29 00:38:24;;;;;;;;;;;;;;;26.34;66.71;100858.06;5032272;28;1256;-42
2022/08/29 00:41:12;;;;;;;;;;;;;;;26.37;66.30;100869.34;5032248;28;1966;-38
2022/08/29 00:43:57;;;;;;;;;;;;;;;26.35;66.07;100860.63;5032315;28;1783;-42
2022/08/29 00:46:45;;;;;;;;;;;;;;;26.30;66.49;100862.81;5032393;28;645;-39
2022/08/29 00:49:38;;;;;;;;;;;;;;;26.34;66.58;100863.41;5032220;28;1239;-41
2022/08/29 00:52:35;;;;;;;;;;;;;;;26.32;66.58;100862.72;5032567;28;622;-40
2022/08/29 00:55:22;;;;;;;;;;;;;;;26.32;66.62;100862.72;5032165;28;1253;-42
2022/08/29 00:58:10;;;;;;;;;;;;;;;26.26;66.86;100866.75;5033040;28;1506;-42
2022/08/29 01:00:58;;;;;;;;;;;;;;;26.29;66.93;100871.84;5035762;28;1910;-41
2022/08/29 01:03:43;;;;;;;;;;;;;;;26.29;66.96;100862.97;5035989;28;1213;-42
2022/08/29 01:06:29;;;;;;;;;;;;;;;26.28;67.22;100864.78;5035709;28;602;-38
2022/08/29 01:09:15;;;;;;;;;;;;;;;26.24;67.06;100863.34;5035162;28;1181;-39
2022/08/29 01:12:16;;;;;;;;;;;;;;;26.32;66.90;100871.56;5035606;28;657;-39
2022/08/29 01:15:06;;;;;;;;;;;;;;;26.33;67.12;100872.38;5034921;28;1318;-39
2022/08/29 01:17:53;;;;;;;;;;;;;;;26.26;67.63;100879.25;5035698;28;1148;-41
2022/08/29 01:20:48;;;;;;;;;;;;;;;26.22;67.08;100880.50;5035466;28;1269;-42
2022/08/29 01:23:38;;;;;;;;;;;;;;;26.19;67.09;100884.28;5035363;28;1220;-39
2022/08/29 01:26:25;;;;;;;;;;;;;;;26.14;66.91;100881.13;5035284;28;629;-40
2022/08/29 01:29:10;;;;;;;;;;;;;;;26.06;67.15;100878.25;5035503;28;1233;-40
2022/08/29 01:31:55;;;;;;;;;;;;;;;26.04;67.13;100869.56;5035559;28;549;-40
2022/08/29 01:34:42;;;;;;;;;;;;;;;26.09;66.58;100891.34;5035533;28;1314;-44
2022/08/29 01:37:29;;;;;;;;;;;;;;;25.98;66.95;100884.28;5035025;28;641;-42
2022/08/29 01:40:14;;;;;;;;;;;;;;;26.03;67.05;100883.88;5035347;28;1266;-43
2022/08/29 01:43:00;;;;;;;;;;;;;;;26.06;66.84;100880.94;5033937;28;1898;-41
2022/08/29 01:45:45;;;;;;;;;;;;;;;25.96;67.40;100875.53;5035295;28;1611;-43
2022/08/29 01:48:31;;;;;;;;;;;;;;;25.94;67.34;100876.63;5034988;28;1380;-42
2022/08/29 01:51:16;;;;;;;;;;;;;;;25.85;67.22;100882.75;5035008;28;641;-44
2022/08/29 01:54:04;;;;;;;;;;;;;;;25.90;66.98;100880.56;5035030;28;1236;-39
2022/08/29 01:56:51;;;;;;;;;;;;;;;25.97;67.23;100873.72;5034304;28;794;-40
2022/08/29 01:59:37;;;;;;;;;;;;;;;25.87;66.99;100876.31;5033157;28;1244;-40
2022/08/29 02:02:24;;;;;;;;;;;;;;;25.90;66.94;100875.22;5034996;28;1966;-40
2022/08/29 02:05:09;;;;;;;;;;;;;;;25.94;67.14;100871.31;5035081;28;1295;-44
2022/08/29 02:07:55;;;;;;;;;;;;;;;25.91;67.25;100874.22;5034490;28;1136;-41
2022/08/29 02:10:41;;;;;;;;;;;;;;;25.86;67.09;100871.97;5034337;28;1269;-42
2022/08/29 02:13:27;;;;;;;;;;;;;;;25.89;67.25;100868.19;5034435;28;1328;-41
2022/08/29 02:16:12;;;;;;;;;;;;;;;25.88;67.12;100869.16;5034608;28;669;-39
2022/08/29 02:18:58;;;;;;;;;;;;;;;25.87;67.13;100854.97;5034670;28;1216;-42
2022/08/29 02:21:44;;;;;;;;;;;;;;;25.83;67.09;100858.03;5034134;28;1961;-41
2022/08/29 02:24:29;;;;;;;;;;;;;;;25.88;67.51;100861.16;5034571;28;1225;-40
2022/08/29 02:27:14;;;;;;;;;;;;;;;25.78;67.82;100865.56;5033965;28;661;-41
2022/08/29 02:30:00;;;;;;;;;;;;;;;25.81;67.74;100870.63;5033757;28;1228;-40
2022/08/29 02:32:45;;;;;;;;;;;;;;;25.88;67.49;100874.50;5033697;28;1046;-43
2022/08/29 02:35:31;;;;;;;;;;;;;;;25.87;67.60;100876.31;5033940;28;1211;-40
2022/08/29 02:38:20;;;;;;;;;;;;;;;25.81;68.03;100874.16;5034230;28;1072;-45
2022/08/29 02:41:06;;;;;;;;;;;;;;;25.79;68.40;100875.28;5033935;28;673;-39
2022/08/29 02:43:57;;;;;;;;;;;;;;;25.77;68.49;100875.41;5030044;28;1700;-43
2022/08/29 02:46:42;;;;;;;;;;;;;;;25.70;69.37;100865.38;5014294;28;735;-39
2022/08/29 02:49:27;;;;;;;;;;;;;;;25.71;69.30;100859.06;5028387;28;1247;-43
2022/08/29 02:52:14;;;;;;;;;;;;;;;25.69;69.07;100869.00;5033815;28;637;-42
2022/08/29 02:54:59;;;;;;;;;;;;;;;25.59;69.37;100860.09;5033993;28;1244;-40
2022/08/29 02:57:45;;;;;;;;;;;;;;;25.59;69.33;100860.09;5033547;28;1056;-39
2022/08/29 03:00:31;;;;;;;;;;;;;;;25.54;69.49;100861.31;5013710;28;1287;-45
2022/08/29 03:03:16;;;;;;;;;;;;;;;25.56;69.52;100863.88;5013809;28;1960;-41
2022/08/29 03:06:02;;;;;;;;;;;;;;;25.49;69.35;100860.03;5013894;28;926;-41
2022/08/29 03:08:49;;;;;;;;;;;;;;;25.39;69.78;100851.06;5013208;28;1268;-39
2022/08/29 03:11:34;;;;;;;;;;;;;;;25.39;69.65;100862.56;5013643;28;625;-40
2022/08/29 03:14:20;;;;;;;;;;;;;;;25.46;69.64;100865.59;5013860;28;1216;-40
2022/08/29 03:17:05;;;;;;;;;;;;;;;25.41;69.43;100862.47;5013785;28;645;-42
2022/08/29 03:19:50;;;;;;;;;;;;;;;25.37;69.90;100864.53;5013942;28;1247;-39
2022/08/29 03:22:36;;;;;;;;;;;;;;;25.41;69.77;100855.28;5013392;28;1914;-44
2022/08/29 03:25:22;;;;;;;;;;;;;;;25.43;69.29;100850.69;5013306;28;1253;-39
2022/08/29 03:28:08;;;;;;;;;;;;;;;25.35;69.66;100861.13;5013469;28;1068;-42
2022/08/29 03:30:53;;;;;;;;;;;;;;;25.42;69.63;100862.31;5013529;28;561;-40
2022/08/29 03:33:38;;;;;;;;;;;;;;;25.43;69.73;100863.16;5013436;28;1221;-40
2022/08/29 03:36:26;;;;;;;;;;;;;;;25.46;69.37;100863.78;5013522;28;606;-40
2022/08/29 03:39:12;;;;;;;;;;;;;;;25.39;69.65;100862.56;5013490;28;1233;-43
2022/08/29 03:41:57;;;;;;;;;;;;;;;25.38;69.64;100852.06;5013084;28;1906;-39
2022/08/29 03:44:42;;;;;;;;;;;;;;;25.46;69.31;100853.09;5013427;28;1475;-38
2022/08/29 03:47:28;;;;;;;;;;;;;;;25.35;69.98;100846.97;5013281;28;677;-39
2022/08/29 03:50:14;;;;;;;;;;;;;;;25.38;69.88;100847.53;5012366;28;1299;-39
2022/08/29 03:52:59;;;;;;;;;;;;;;;25.32;69.66;100844.56;5013199;28;935;-42
2022/08/29 03:55:45;;;;;;;;;;;;;;;25.31;69.79;100853.53;5013154;28;1379;-42
2022/08/29 03:58:30;;;;;;;;;;;;;;;25.32;69.47;100850.72;5013582;28;1216;-40
2022/08/29 04:01:17;;;;;;;;;;;;;;;25.34;69.69;100855.94;5013108;28;668;-44
2022/08/29 04:04:02;;;;;;;;;;;;;;;25.39;69.37;100851.91;5013317;28;1316;-39
2022/08/29 04:06:47;;;;;;;;;;;;;;;25.46;68.97;100862.91;5013267;28;736;-41
2022/08/29 04:09:33;;;;;;;;;;;;;;;25.46;68.78;100858.44;5013476;28;1324;-41
2022/08/29 04:12:18;;;;;;;;;;;;;;;25.39;68.63;100859.91;5013089;28;673;-43
2022/08/29 04:15:04;;;;;;;;;;;;;;;25.37;68.55;100856.53;5013618;28;1258;-41
2022/08/29 04:17:53;;;;;;;;;;;;;;;25.41;68.22;100852.63;5013099;28;1103;-42
2022/08/29 04:20:43;;;;;;;;;;;;;;;25.40;67.99;100861.63;5013334;28;1387;-40
2022/08/29 04:23:29;;;;;;;;;;;;;;;25.38;67.93;100854.72;5013184;28;1973;-42
2022/08/29 04:26:16;;;;;;;;;;;;;;;25.39;67.45;100859.91;5012787;28;653;-41
2022/08/29 04:29:21;;;;;;;;;;;;;;;25.38;66.96;100863.53;5013628;28;1314;-41
2022/08/29 04:32:07;;;;;;;;;;;;;;;25.30;66.78;100862.50;5012314;28;629;-41
2022/08/29 04:34:56;;;;;;;;;;;;;;;25.26;66.75;100861.06;5015944;28;1282;-43
2022/08/29 04:37:43;;;;;;;;;;;;;;;25.19;67.24;100859.88;5016521;28;1019;-41
2022/08/29 04:40:28;;;;;;;;;;;;;;;25.24;67.25;100857.66;5016388;28;1197;-41
2022/08/29 04:43:13;;;;;;;;;;;;;;;25.27;67.06;100860.94;5016478;28;1906;-44
2022/08/29 04:45:59;;;;;;;;;;;;;;;25.24;67.14;100866.50;5016580;28;2067;-41
2022/08/29 04:48:44;;;;;;;;;;;;;;;25.27;66.73;100876.06;5022079;28;1244;-41
2022/08/29 04:51:29;;;;;;;;;;;;;;;25.27;66.42;100870.75;5021186;28;683;-44
2022/08/29 04:54:15;;;;;;;;;;;;;;;25.25;66.79;100872.69;5028615;28;1241;-42
2022/08/29 04:57:02;;;;;;;;;;;;;;;25.29;66.54;100871.47;5016256;28;680;-47
2022/08/29 04:59:53;;;;;;;;;;;;;;;25.33;66.07;100873.75;5016810;28;1217;-38
2022/08/29 05:02:39;;;;;;;;;;;;;;;25.32;66.28;100866.72;5016047;28;1910;-39
2022/08/29 05:05:26;;;;;;;;;;;;;;;25.32;66.39;100869.38;5016136;28;1280;-40
2022/08/29 05:08:11;;;;;;;;;;;;;;;25.33;66.64;100871.09;5015986;28;1045;-44
2022/08/29 05:10:57;;;;;;;;;;;;;;;25.39;66.30;100865.25;5016245;28;561;-41
2022/08/29 05:13:42;;;;;;;;;;;;;;;25.36;66.65;100862.81;5016060;28;1752;-43
2022/08/29 05:16:29;;;;;;;;;;;;;;;25.40;66.77;100866.94;5032693;28;696;-43
2022/08/29 05:19:15;;;;;;;;;;;;;;;25.41;66.69;100867.78;5017811;28;1315;-42
2022/08/29 05:22:00;;;;;;;;;;;;;;;25.41;66.37;100870.47;5015877;28;1961;-41
2022/08/29 05:24:47;;;;;;;;;;;;;;;25.36;66.25;100877.97;5035837;28;1248;-42
2022/08/29 05:27:32;;;;;;;;;;;;;;;25.41;66.36;100865.94;5035466;28;637;-42
2022/08/29 05:30:18;;;;;;;;;;;;;;;25.36;66.02;100861.97;5025341;28;1250;-40
2022/08/29 05:33:19;;;;;;;;;;;;;;;25.30;66.50;100866.00;5015291;28;1147;-40
2022/08/29 05:36:05;;;;;;;;;;;;;;;25.37;66.25;100867.19;5014702;28;712;-40
2022/08/29 05:38:51;;;;;;;;;;;;;;;25.40;66.17;100874.94;5015402;28;1245;-41
2022/08/29 05:41:36;;;;;;;;;;;;;;;25.38;66.11;100882.19;5028306;28;632;-41
2022/08/29 05:44:23;;;;;;;;;;;;;;;25.41;65.62;100889.94;5014750;28;1610;-41
2022/08/29 05:47:09;;;;;;;;;;;;;;;25.42;65.44;100893.47;5026486;28;1765;-42
2022/08/29 05:49:54;;;;;;;;;;;;;;;25.45;65.31;100895.88;5015160;28;1319;-43
2022/08/29 05:52:40;;;;;;;;;;;;;;;25.45;65.00;100891.41;5029958;28;1079;-42
2022/08/29 05:55:25;;;;;;;;;;;;;;;25.41;64.39;100897.94;5034644;28;1253;-42
2022/08/29 05:58:11;;;;;;;;;;;;;;;25.46;64.27;100901.09;5034802;28;1183;-41
2022/08/29 06:00:56;;;;;;;;;;;;;;;25.46;64.39;100895.78;5033086;28;708;-42
2022/08/29 06:03:41;;;;;;;;;;;;;;;25.48;64.02;100896.50;5014892;28;1906;-43
2022/08/29 06:06:30;;;;;;;;;;;;;;;25.57;63.65;100896.72;5015050;28;676;-43
2022/08/29 06:09:15;;;;;;;;;;;;;;;25.58;63.76;100898.41;5015126;28;1296;-40
2022/08/29 06:12:00;;;;;;;;;;;;;;;25.68;63.48;100899.34;5014626;28;614;-44
2022/08/29 06:14:46;;;;;;;;;;;;;;;25.83;63.99;100898.91;5014686;28;1238;-40
2022/08/29 06:17:36;;;;;;;;;;;;;;;25.89;62.79;100900.22;5021219;28;1082;-41
2022/08/29 06:20:21;;;;;;;;;;;;;;;26.07;62.92;100899.50;5034185;28;1354;-41
2022/08/29 06:23:07;;;;;;;;;;;;;;;26.02;62.38;100900.88;5034407;28;1882;-39
2022/08/29 06:25:56;;;;;;;;;;;;;;;26.01;62.90;100893.84;5034191;28;535;-43
2022/08/29 06:28:44;;;;;;;;;;;;;;;26.11;62.97;100894.75;5034092;28;1335;-43
2022/08/29 06:31:30;;;;;;;;;;;;;;;26.15;62.40;100904.19;5030187;28;1134;-43
2022/08/29 06:34:15;;;;;;;;;;;;;;;26.08;61.95;100889.69;5025250;28;1635;-40
2022/08/29 06:37:00;;;;;;;;;;;;;;;26.14;61.95;100881.13;5025838;28;1181;-42
2022/08/29 06:39:47;;;;;;;;;;;;;;;26.11;62.14;100883.22;5033748;28;1343;-44
2022/08/29 06:42:32;;;;;;;;;;;;;;;26.09;61.45;100886.00;5028542;28;1906;-40
2022/08/29 06:45:18;;;;;;;;;;;;;;;26.01;61.35;100889.34;5032803;28;1633;-42
2022/08/29 06:48:03;;;;;;;;;;;;;;;26.03;61.45;100891.88;5031925;28;1063;-38
2022/08/29 06:50:48;;;;;;;;;;;;;;;26.11;61.26;100896.56;5033157;28;1264;-38
2022/08/29 06:53:34;;;;;;;;;;;;;;;26.37;61.53;100893.38;5033241;28;1274;-41
2022/08/29 06:56:21;;;;;;;;;;;;;;;26.41;61.44;100891.28;5026021;28;605;-37
2022/08/29 06:59:11;;;;;;;;;;;;;;;26.45;60.98;100885.53;5029292;28;1280;-41
2022/08/29 07:01:56;;;;;;;;;;;;;;;26.37;61.25;100881.84;5033346;28;672;-39
2022/08/29 07:04:42;;;;;;;;;;;;;;;26.42;60.73;100875.13;5031901;28;1273;-47
2022/08/29 07:07:27;;;;;;;;;;;;;;;26.49;61.31;100873.59;5031797;28;704;-38
2022/08/29 07:10:13;;;;;;;;;;;;;;;26.40;59.32;100873.56;5032471;28;1288;-42
2022/08/29 07:13:05;;;;;;;;;;;;;;;26.40;60.34;100868.22;5031809;28;1105;-42
2022/08/29 07:15:50;;;;;;;;;;;;;;;26.54;60.89;100860.69;5031341;28;922;-38
2022/08/29 07:18:36;;;;;;;;;;;;;;;26.48;60.07;100866.56;5026974;28;1221;-42
2022/08/29 07:21:23;;;;;;;;;;;;;;;26.61;59.73;100866.34;5032309;28;636;-38
2022/08/29 07:24:09;;;;;;;;;;;;;;;26.66;59.42;100856.06;5032214;28;1972;-42
2022/08/29 07:26:54;;;;;;;;;;;;;;;26.66;57.74;100863.28;5027633;28;735;-42
2022/08/29 07:29:40;;;;;;;;;;;;;;;26.74;58.68;100866.09;5033093;28;1307;-40
2022/08/29 07:32:25;;;;;;;;;;;;;;;26.75;56.59;100878.50;5032836;28;665;-39
2022/08/29 07:35:12;;;;;;;;;;;;;;;26.77;58.80;100872.03;5031889;28;1280;-40
2022/08/29 07:37:59;;;;;;;;;;;;;;;26.82;58.26;100868.97;5031823;28;943;-43
2022/08/29 07:40:45;;;;;;;;;;;;;;;26.70;54.97;100853.97;5026996;28;1296;-41
2022/08/29 07:43:30;;;;;;;;;;;;;;;26.84;57.68;100851.81;5032900;28;1968;-44
2022/08/29 07:46:16;;;;;;;;;;;;;;;26.83;57.18;100854.63;5032691;28;1035;-44
2022/08/29 07:49:02;;;;;;;;;;;;;;;26.85;58.07;100841.97;5027696;28;1351;-45
2022/08/29 07:51:47;;;;;;;;;;;;;;;26.83;57.63;100838.59;5032538;28;687;-42
2022/08/29 07:54:32;;;;;;;;;;;;;;;26.89;58.11;100836.22;5032741;28;1260;-40
2022/08/29 07:57:18;;;;;;;;;;;;;;;26.96;57.61;100847.22;5027958;28;767;-39
2022/08/29 08:00:05;;;;;;;;;;;;;;;26.98;57.48;100842.56;5033194;28;1224;-41
2022/08/29 08:02:51;;;;;;;;;;;;;;;27.01;56.70;100834.25;5032594;28;1972;-41
2022/08/29 08:05:37;;;;;;;;;;;;;;;27.05;58.14;100830.34;5032164;28;1276;-38
2022/08/29 08:08:22;;;;;;;;;;;;;;;27.02;55.97;100825.28;5030666;28;1328;-40
2022/08/29 08:11:07;;;;;;;;;;;;;;;26.99;58.10;100828.22;5036155;28;957;-39
2022/08/29 08:13:54;;;;;;;;;;;;;;;27.12;57.33;100826.09;5033546;28;1347;-40
2022/08/29 08:16:40;;;;;;;;;;;;;;;27.15;56.76;100839.19;5032208;28;912;-39
2022/08/29 08:19:28;;;;;;;;;;;;;;;27.23;55.91;100834.00;5032087;28;1300;-39
2022/08/29 08:22:14;;;;;;;;;;;;;;;27.29;55.65;100835.28;5032971;28;925;-38
2022/08/29 08:25:00;;;;;;;;;;;;;;;27.24;55.34;100838.34;5027359;28;1369;-40
2022/08/29 08:27:45;;;;;;;;;;;;;;;27.25;56.52;100837.38;5032747;28;1117;-39
2022/08/29 08:30:33;;;;;;;;;;;;;;;27.27;56.89;100846.09;5034884;28;1281;-41
2022/08/29 08:33:20;;;;;;;;;;;;;;;27.46;55.49;100837.25;5031340;28;991;-39
2022/08/29 08:36:11;;;;;;;;;;;;;;;27.44;55.93;100849.94;5034121;28;855;-39
2022/08/29 08:38:57;;;;;;;;;;;;;;;27.56;53.34;100864.88;5028671;28;1347;-37
2022/08/29 08:41:49;;;;;;;;;;;;;;;27.60;47.87;100864.44;5032666;28;1353;-39
2022/08/29 08:44:48;;;;;;;;;;;;;;;27.61;47.51;100876.84;5033182;28;1963;-40
2022/08/29 08:47:41;;;;;;;;;;;;;;;27.61;53.37;100884.00;5031660;28;1325;-40
2022/08/29 08:50:34;;;;;;;;;;;;;;;27.62;52.85;100880.34;5033686;28;1462;-37
2022/08/29 08:53:22;;;;;;;;;;;;;;;27.69;52.58;100876.97;5031417;28;957;-38
2022/08/29 08:56:14;;;;;;;;;;;;;;;27.79;50.46;100876.09;5029665;28;1224;-39
2022/08/29 08:59:15;;;;;;;;;;;;;;;27.88;46.84;100885.94;5030847;28;1373;-38
2022/08/29 09:02:03;;;;;;;;;;;;;;;27.92;50.70;100890.03;5031424;28;1223;-38
2022/08/29 09:05:16;;;;;;;;;;;;;;;28.01;49.02;100891.84;5032521;28;1906;-36
2022/08/29 09:08:11;;;;;;;;;;;;;;;28.00;51.08;100896.38;5031239;28;1068;-40
2022/08/29 09:10:57;;;;;;;;;;;;;;;28.02;49.35;100914.97;5027860;28;681;-39
2022/08/29 09:14:07;;;;;;;;;;;;;;;28.04;49.68;100923.69;5030924;28;1366;-38
2022/08/29 09:16:55;;;;;;;;;;;;;;;28.23;49.75;100929.06;5024662;28;912;-40
2022/08/29 09:19:40;;;;;;;;;;;;;;;28.15;50.82;100926.25;5027902;28;1288;-39
2022/08/29 09:22:28;;;;;;;;;;;;;;;28.13;49.55;100939.78;5026702;28;1029;-41
2022/08/29 09:25:17;;;;;;;;;;;;;;;28.49;46.05;100943.50;5032209;28;1236;-40
2022/08/29 09:28:06;;;;;;;;;;;;;;;28.50;47.35;100947.88;5031291;28;1105;-42
2022/08/29 09:31:10;;;;;;;;;;;;;;;28.34;49.68;100958.34;5027801;28;693;-43
2022/08/29 09:33:57;;;;;;;;;;;;;;;28.33;50.32;100967.38;5027300;28;1366;-41
2022/08/29 09:36:51;;;;;;;;;;;;;;;28.42;50.94;100971.91;5032439;28;893;-44
2022/08/29 09:39:36;;;;;;;;;;;;;;;28.30;52.68;100978.38;5026838;28;1358;-42
2022/08/29 09:42:22;;;;;;;;;;;;;;;28.39;52.54;100974.81;5032685;28;920;-39
2022/08/29 09:45:18;;;;;;;;;;;;;;;28.28;53.20;100988.41;5032665;28;1895;-40
2022/08/29 09:48:09;;;;;;;;;;;;;;;28.31;54.79;100985.44;5028109;28;1083;-41
2022/08/29 09:51:08;;;;;;;;;;;;;;;28.32;54.70;100988.97;5030524;28;1721;-40
2022/08/29 09:54:09;;;;;;;;;;;;;;;28.37;54.85;100998.25;5027929;28;1256;-39
2022/08/29 09:56:57;;;;;;;;;;;;;;;28.34;55.04;101011.09;5032290;28;854;-38
2022/08/29 09:59:44;;;;;;;;;;;;;;;28.33;54.94;101015.59;5034816;28;1248;-37
2022/08/29 10:02:46;;;;;;;;;;;;;;;28.37;55.38;101013.47;5033600;28;893;-39
2022/08/29 10:05:43;;;;;;;;;;;;;;;28.37;55.91;101008.97;5032965;28;1382;-41
2022/08/29 10:08:34;;;;;;;;;;;;;;;28.33;56.20;101004.88;5032444;28;1343;-38
2022/08/29 10:11:36;;;;;;;;;;;;;;;28.35;56.29;101004.75;5032475;28;681;-40
2022/08/29 10:14:32;;;;;;;;;;;;;;;28.44;55.83;100998.53;5031281;28;1268;-40
2022/08/29 10:20:39;;;;;;;;;;;;;;;28.48;56.05;101000.78;5032262;28;1391;-41
2022/08/29 10:23:31;;;;;;;;;;;;;;;28.58;55.81;101004.25;5029440;28;1910;-40
2022/08/29 10:26:29;;;;;;;;;;;;;;;28.45;56.03;101002.91;5033815;28;1350;-40
2022/08/29 10:29:35;;;;;;;;;;;;;;;28.46;55.78;101000.06;5031465;28;1280;-38
2022/08/29 10:32:26;;;;;;;;;;;;;;;28.51;55.54;101007.69;5022488;28;1420;-42
2022/08/29 10:35:29;;;;;;;;;;;;;;;28.53;55.53;101009.22;5030024;28;1324;-42
2022/08/29 10:38:14;;;;;;;;;;;;;;;28.48;55.70;101008.81;5025876;28;1062;-41
2022/08/29 10:41:13;;;;;;;;;;;;;;;28.48;56.08;101011.50;5027843;28;869;-38
2022/08/29 10:44:11;;;;;;;;;;;;;;;28.43;56.48;101019.09;5026307;28;1902;-40
2022/08/29 10:47:11;;;;;;;;;;;;;;;28.66;54.02;101014.31;5023137;28;1292;-40
2022/08/29 10:50:06;;;;;;;;;;;;;;;28.76;51.72;101011.59;5027245;28;1221;-42
2022/08/29 10:53:10;;;;;;;;;;;;;;;28.71;48.14;101022.75;5028947;28;965;-41
2022/08/29 10:55:56;;;;;;;;;;;;;;;28.50;52.78;101022.06;5022079;28;928;-39
2022/08/29 10:58:44;;;;;;;;;;;;;;;28.62;52.48;101026.25;5031825;28;1362;-38
2022/08/29 11:01:30;;;;;;;;;;;;;;;28.65;48.65;101015.28;5029040;28;881;-39
2022/08/29 11:04:18;;;;;;;;;;;;;;;28.67;50.45;101030.22;5027515;28;1910;-39
2022/08/29 11:07:19;;;;;;;;;;;;;;;28.85;46.11;101032.19;5027865;28;881;-37
2022/08/29 11:10:16;;;;;;;;;;;;;;;28.63;49.89;101031.50;5029854;28;1280;-42
2022/08/29 11:13:08;;;;;;;;;;;;;;;28.66;48.30;101025.88;5029593;28;1068;-40
2022/08/29 11:16:03;;;;;;;;;;;;;;;28.80;48.51;101004.94;5026518;28;1213;-36
2022/08/29 11:18:54;;;;;;;;;;;;;;;28.68;47.22;100988.19;5031373;28;1334;-44
2022/08/29 11:21:39;;;;;;;;;;;;;;;28.53;50.05;100978.91;5027190;28;1078;-37
2022/08/29 11:24:26;;;;;;;;;;;;;;;28.76;48.63;100947.28;5030345;28;1902;-45
2022/08/29 11:27:36;;;;;;;;;;;;;;;28.61;46.14;100923.56;5022286;28;998;-37
2022/08/29 11:30:41;;;;;;;;;;;;;;;28.63;44.81;100908.22;5025312;28;1335;-36
2022/08/29 11:33:34;;;;;;;;;;;;;;;28.49;47.14;100902.47;5029763;28;1272;-41
2022/08/29 11:36:32;;;;;;;;;;;;;;;28.62;46.30;100852.91;5026278;28;1121;-38
2022/08/29 11:39:17;;;;;;;;;;;;;;;28.75;44.91;100785.59;5030922;28;1257;-38
2022/08/29 11:42:06;;;;;;;;;;;;;;;28.59;49.87;100786.22;5023044;28;964;-39
2022/08/29 11:44:53;;;;;;;;;;;;;;;28.67;48.63;100837.25;5029526;28;2263;-40
2022/08/29 11:47:44;;;;;;;;;;;;;;;28.74;46.90;100858.94;5020692;28;922;-39
2022/08/29 11:50:37;;;;;;;;;;;;;;;28.80;46.08;100863.72;5027913;28;1292;-38
2022/08/29 11:53:22;;;;;;;;;;;;;;;28.81;46.63;100856.50;5025706;28;1395;-39
2022/08/29 11:56:11;;;;;;;;;;;;;;;28.81;46.63;100856.50;5025017;28;1662;-36
2022/08/29 11:58:56;;;;;;;;;;;;;;;29.57;48.01;100844.41;5025128;28;1387;-35
2022/08/29 12:01:56;;;;;;;;;;;;;;;29.84;48.08;100849.69;5023099;28;1085;-36
2022/08/29 12:04:49;;;;;;;;;;;;;;;30.09;48.03;100839.94;5025324;28;1907;-35
2022/08/29 12:07:50;;;;;;;;;;;;;;;30.11;49.73;100829.88;5026115;28;964;-35
2022/08/29 12:10:54;;;;;;;;;;;;;;;29.90;51.85;100819.50;5027562;28;1292;-36
2022/08/29 12:13:45;;;;;;;;;;;;;;;29.75;52.71;100840.69;5028689;28;1300;-35
2022/08/29 12:16:45;;;;;;;;;;;;;;;29.80;52.14;100856.31;5027151;28;832;-37
2022/08/29 12:19:49;;;;;;;;;;;;;;;29.86;52.47;100865.63;5028235;28;1374;-35
2022/08/29 12:22:53;;;;;;;;;;;;;;;29.80;54.86;100865.22;5025349;28;861;-37
2022/08/29 12:25:45;;;;;;;;;;;;;;;29.69;55.25;100835.09;5028755;28;1918;-34
2022/08/29 12:28:34;;;;;;;;;;;;;;;29.78;55.17;100818.91;5030291;28;1371;-38
2022/08/29 12:31:23;;;;;;;;;;;;;;;29.83;54.12;100817.59;5028603;28;1268;-37
2022/08/29 12:34:17;;;;;;;;;;;;;;;29.56;55.26;100819.41;5028364;28;1356;-36
2022/08/29 12:37:26;;;;;;;;;;;;;;;29.59;56.48;100816.41;5016985;28;1008;-36
2022/08/29 12:40:17;;;;;;;;;;;;;;;29.42;57.94;100811.91;5028494;28;1336;-39
2022/08/29 12:43:21;;;;;;;;;;;;;;;29.34;57.68;100819.88;5024582;28;1125;-34
2022/08/29 12:46:25;;;;;;;;;;;;;;;29.40;57.07;100827.31;5024924;28;1252;-38
2022/08/29 12:49:17;;;;;;;;;;;;;;;29.26;57.00;100846.63;5027979;28;1241;-36
2022/08/29 12:52:06;;;;;;;;;;;;;;;29.46;56.92;100839.25;5023788;28;1082;-39
2022/08/29 12:54:52;;;;;;;;;;;;;;;29.58;56.19;100833.50;5032306;28;1278;-37
2022/08/29 12:57:42;;;;;;;;;;;;;;;29.49;56.56;100822.84;5027956;28;1084;-41
2022/08/29 13:00:29;;;;;;;;;;;;;;;29.49;57.44;100821.00;5030360;28;1326;-38
2022/08/29 13:03:19;;;;;;;;;;;;;;;29.46;56.33;100834.75;5032895;28;1033;-40
2022/08/29 13:06:07;;;;;;;;;;;;;;;29.52;55.89;100844.00;5027980;28;1973;-42
2022/08/29 13:08:52;;;;;;;;;;;;;;;29.34;56.46;100857.44;5031599;28;1288;-42
2022/08/29 13:11:37;;;;;;;;;;;;;;;29.32;55.44;100869.31;5030795;28;1152;-43
2022/08/29 13:14:25;;;;;;;;;;;;;;;29.46;55.40;100874.13;5028163;28;1558;-40
2022/08/29 13:17:14;;;;;;;;;;;;;;;29.53;55.73;100883.28;5027566;28;915;-41
2022/08/29 13:20:18;;;;;;;;;;;;;;;29.50;56.02;100897.84;5030900;28;1374;-43
2022/08/29 13:23:05;;;;;;;;;;;;;;;29.54;57.03;100891.19;5032179;28;1095;-47
2022/08/29 13:25:50;;;;;;;;;;;;;;;29.50;57.79;100887.13;5026783;28;1988;-40
2022/08/29 13:28:43;;;;;;;;;;;;;;;29.48;57.60;100894.47;5024178;28;1280;-42
2022/08/29 13:31:31;;;;;;;;;;;;;;;29.27;58.31;100891.25;5026162;28;1280;-39
2022/08/29 13:34:18;;;;;;;;;;;;;;;29.34;57.31;100889.63;5029285;28;1437;-42
2022/08/29 13:37:06;;;;;;;;;;;;;;;29.56;57.10;100883.81;5030577;28;872;-40
2022/08/29 13:40:19;;;;;;;;;;;;;;;29.57;57.36;100890.88;5030242;28;1308;-39
2022/08/29 13:43:05;;;;;;;;;;;;;;;29.39;57.77;100889.19;5025571;28;1178;-42
2022/08/29 13:46:00;;;;;;;;;;;;;;;29.31;57.27;100873.00;5032782;28;1985;-40
2022/08/29 13:48:45;;;;;;;;;;;;;;;29.35;57.02;100891.31;5029964;28;1339;-41
2022/08/29 13:51:31;;;;;;;;;;;;;;;29.34;57.65;100888.78;5032313;28;1113;-37
2022/08/29 13:54:16;;;;;;;;;;;;;;;29.51;56.60;100896.88;5030775;28;1289;-42
2022/08/29 13:57:02;;;;;;;;;;;;;;;29.39;56.27;100898.09;5027407;28;1006;-43
2022/08/29 13:59:52;;;;;;;;;;;;;;;29.52;55.19;100898.53;5032073;28;1296;-39
2022/08/29 14:02:38;;;;;;;;;;;;;;;29.49;55.88;100900.66;5025036;28;1380;-44
2022/08/29 14:05:29;;;;;;;;;;;;;;;29.67;54.95;100891.63;5029682;28;1979;-38
2022/08/29 14:08:15;;;;;;;;;;;;;;;29.68;55.09;100892.47;5028597;28;1121;-41
2022/08/29 14:11:00;;;;;;;;;;;;;;;29.45;54.87;100892.09;5028330;28;1069;-44
2022/08/29 14:13:48;;;;;;;;;;;;;;;29.26;56.69;100892.25;5025348;28;1260;-39
2022/08/29 14:16:33;;;;;;;;;;;;;;;29.33;56.39;100887.13;5025426;28;995;-39
2022/08/29 14:19:19;;;;;;;;;;;;;;;29.50;55.66;100881.75;5028490;28;1340;-44
2022/08/29 14:22:05;;;;;;;;;;;;;;;29.67;55.59;100880.88;5031703;28;1081;-39
2022/08/29 14:24:51;;;;;;;;;;;;;;;29.75;54.76;100867.53;5018205;28;1938;-42
2022/08/29 14:27:37;;;;;;;;;;;;;;;29.62;53.88;100866.25;5029029;28;1077;-38
2022/08/29 14:30:23;;;;;;;;;;;;;;;29.52;54.76;100863.63;5029588;28;1293;-43
2022/08/29 14:33:09;;;;;;;;;;;;;;;29.64;54.99;100859.72;5023681;28;1066;-40
2022/08/29 14:35:54;;;;;;;;;;;;;;;29.72;54.34;100851.75;5029369;28;1038;-42
2022/08/29 14:38:41;;;;;;;;;;;;;;;29.76;54.01;100858.47;5026423;28;1359;-40
2022/08/29 14:41:27;;;;;;;;;;;;;;;29.76;54.31;100857.66;5019891;28;1165;-38
2022/08/29 14:44:12;;;;;;;;;;;;;;;29.74;54.17;100857.78;5021654;28;1910;-44
2022/08/29 14:47:04;;;;;;;;;;;;;;;29.80;52.90;100859.00;5021215;28;1124;-42